Thurston, OH (43157)

9:15 AM EST on January 25, 2015 (GMT -0500)
Northern Lancaster Area | Change Station
CLOSE
Current Station
Personal Weather Station
Location: Lancaster, OH
Elevation: 1000 ft
Nearby Weather Stations
Active Advisory: Winter Weather Advisory

Elev 1000 ft 39.76 °N, 82.57 °W | Updated 6 seconds ago

Overcast
Overcast
33.8 °F
Feels Like 34 °F
N
3.0
Wind Variable Wind from SE
Gusts 5.0 mph

Today
High -- | Low -- °F
--% Chance of Precip.
Yesterday
High -- | Low -- °F
Precip. -- in
7:44 AM 5:41 PM
Waxing Crescent, 32% visible
Pressure 29.79 in
Visibility 4.0 miles
Clouds Clear
Windchill 34 °F
Dew Point 33 °F
Humidity 97%
Rainfall 0.00 in
Snow Depth Not available.
UV 1 out of 12
Pollen .10 out of 12
Air Quality Not available.
Flu Activity Not available.
METAR KLHQ 251353Z AUTO 13004KT 4SM BR CLR 02/M01 A2977 RMK AO2 SLP086 T00171006

More Conditions Fewer Conditions

Pressure 29.79 in
Visibility 4.0 miles
Clouds Clear
Windchill 34 °F
Dew Point 33 °F
Humidity 97%
Rainfall 0.00 in
Snow Depth Not available.
UV 1 out of 12
Pollen .10 out of 12
Air Quality Not available.
Flu Activity Not available.
METAR KLHQ 251353Z AUTO 13004KT 4SM BR CLR 02/M01 A2977 RMK AO2 SLP086 T00171006

More Conditions Fewer Conditions

10-Day Weather Forecast

Almanac

Astronomy

Jan. 25, 2015 Rise Set
Actual Time
Civil Twilight
Nautical Twilight
Astronomical Twilight
Moon
Length of Visible Light
Length of Day
Tomorrow will be .
, % of the Moon is Illuminated

Today's Extremes

State Highs State Lows

Community

WunderPhotos

Upload Photos

1,789,893 photos uploaded!

WunderBlogs® & News

Nearby

Air Quality

  Air Quality AQ Index Pollutant
Not available.

Snow Depth

Station Depth Elevation

Earthquake Activity

City Distance Mag. Time & Date
Minimum magnitude displayed is 2.5.

Coastal Water Temperatures

Place Temperature

Nearby Weather Stations